Time;durP1;ratioP1;P1;durP2;ratioP2;P2;SDS_P1;SDS_P2;PMS_P1;PMS_P2;Temp;Humidity;BMP_temperature;BMP_pressure;BME280_temperature;BME280_humidity;BME280_pressure;Samples;Min_cycle;Max_cycle;Signal;HPM_P1;HPM_P2
2023/01/27 08:20:38;;;;;;;8.77;7.10;;;;;;;4.81;45.75;97744.06;6318926;27;20904;-35
2023/01/27 08:23:40;;;;;;;10.07;7.60;;;;;;;3.60;50.10;97743.19;6279970;28;20316;-36
2023/01/27 08:26:42;;;;;;;11.47;7.90;;;;;;;2.66;52.50;97743.59;6274539;28;20265;-36
2023/01/27 08:29:45;;;;;;;12.60;7.73;;;;;;;2.02;55.05;97749.66;6275073;28;20740;-36
2023/01/27 08:32:47;;;;;;;12.10;7.90;;;;;;;1.61;56.76;97738.03;6273528;28;20771;-36
2023/01/27 08:35:50;;;;;;;10.27;7.27;;;;;;;1.09;57.97;97716.19;6273125;28;20234;-36
2023/01/27 08:38:52;;;;;;;10.33;7.30;;;;;;;1.10;59.15;97759.78;6272435;28;20597;-35
2023/01/27 08:41:55;;;;;;;12.97;8.47;;;;;;;0.95;60.55;97758.94;6274746;28;20230;-36
2023/01/27 08:44:59;;;;;;;11.07;7.07;;;;;;;0.55;61.33;97723.44;6272221;28;20322;-35
2023/01/27 08:48:02;;;;;;;11.97;8.13;;;;;;;0.57;62.55;97766.00;6272806;28;20232;-35
2023/01/27 08:51:06;;;;;;;14.10;8.67;;;;;;;0.36;63.08;97766.66;6272210;28;20211;-35
2023/01/27 08:54:08;;;;;;;13.37;8.90;;;;;;;0.26;63.93;97764.25;6271285;28;20223;-37
2023/01/27 08:57:10;;;;;;;12.83;7.93;;;;;;;-0.01;64.40;97739.38;6270960;28;20810;-35
2023/01/27 09:00:13;;;;;;;13.03;8.63;;;;;;;0.18;64.89;97772.97;6272287;28;20244;-36
2023/01/27 09:03:16;;;;;;;13.43;8.20;;;;;;;0.30;65.01;97770.78;6273614;28;20306;-36
2023/01/27 09:06:20;;;;;;;14.67;9.00;;;;;;;0.29;64.78;97770.94;6265308;28;20227;-36
2023/01/27 09:09:22;;;;;;;15.30;8.93;;;;;;;0.23;64.62;97767.22;6266870;28;20239;-35
2023/01/27 09:12:25;;;;;;;18.17;10.10;;;;;;;0.18;65.88;97777.41;6270080;28;20249;-35
2023/01/27 09:15:30;;;;;;;14.83;9.43;;;;;;;0.18;65.78;97764.31;6273141;28;20222;-35
2023/01/27 09:18:34;;;;;;;17.40;10.07;;;;;;;0.20;65.87;97768.41;6268884;28;20355;-35
2023/01/27 09:21:38;;;;;;;14.43;9.50;;;;;;;0.25;66.13;97767.88;6267444;28;20812;-35
2023/01/27 09:24:40;;;;;;;16.20;9.57;;;;;;;0.19;66.45;97771.97;6268569;28;20644;-35
2023/01/27 09:27:43;;;;;;;16.03;9.23;;;;;;;0.04;66.01;97744.91;6267454;28;20241;-35
2023/01/27 09:30:45;;;;;;;16.10;9.27;;;;;;;0.31;65.86;97763.75;6273971;28;20241;-35
2023/01/27 09:33:47;;;;;;;14.53;9.07;;;;;;;0.35;66.27;97771.09;6255286;28;20235;-35
2023/01/27 09:36:57;;;;;;;14.77;9.07;;;;;;;0.42;65.72;97773.81;6252460;28;20553;-35
2023/01/27 09:40:07;;;;;;;13.93;8.13;;;;;;;0.52;66.19;97784.88;6252399;28;20273;-36
2023/01/27 09:43:56;;;;;;;15.07;9.17;;;;;;;0.60;66.09;97781.38;6245793;28;20341;-36
2023/01/27 09:47:04;;;;;;;13.67;9.07;;;;;;;0.68;66.01;97769.00;6251113;28;20597;-36
2023/01/27 09:50:22;;;;;;;14.00;9.03;;;;;;;0.66;66.20;97781.50;6254965;28;20231;-36
2023/01/27 09:53:31;;;;;;;16.47;9.60;;;;;;;0.66;65.74;97776.25;6255412;28;20265;-35
2023/01/27 09:56:51;;;;;;;18.47;11.00;;;;;;;0.37;65.76;97760.41;6252578;28;20220;-35
2023/01/27 10:00:09;;;;;;;14.50;8.77;;;;;;;0.46;66.07;97775.09;6252375;28;20236;-35
2023/01/27 10:03:30;;;;;;;15.07;9.23;;;;;;;0.44;66.22;97769.19;6249554;28;20682;-36
2023/01/27 10:07:29;;;;;;;15.27;9.33;;;;;;;0.37;66.67;97758.59;6253340;28;20333;-36
2023/01/27 10:10:43;;;;;;;14.93;9.93;;;;;;;0.38;66.74;97762.03;6224202;28;20706;-36
2023/01/27 10:14:04;;;;;;;16.13;9.90;;;;;;;0.38;66.59;97757.63;6230742;28;20338;-36
2023/01/27 10:17:23;;;;;;;14.70;9.97;;;;;;;0.24;66.66;97738.22;6252004;28;20227;-36
2023/01/27 10:20:45;;;;;;;15.47;9.57;;;;;;;0.36;66.77;97745.69;6254557;28;20850;-36
2023/01/27 10:23:55;;;;;;;12.57;8.67;;;;;;;0.54;66.59;97751.44;6253151;28;20231;-36
2023/01/27 10:27:13;;;;;;;15.13;9.90;;;;;;;0.61;66.16;97755.00;6250811;28;20227;-36
2023/01/27 10:30:29;;;;;;;14.27;8.90;;;;;;;0.69;65.72;97733.97;6249327;28;20685;-36
2023/01/27 10:33:51;;;;;;;16.63;9.80;;;;;;;0.63;65.32;97737.25;6249829;28;20282;-35
2023/01/27 10:37:12;;;;;;;13.80;8.63;;;;;;;0.88;65.21;97740.47;6252485;28;20545;-36
2023/01/27 10:40:34;;;;;;;15.73;9.07;;;;;;;0.96;65.33;97732.53;6254856;28;20735;-36
2023/01/27 10:44:01;;;;;;;14.50;9.30;;;;;;;1.13;65.28;97741.03;6250805;28;20380;-38
2023/01/27 10:47:22;;;;;;;12.73;8.23;;;;;;;1.28;64.67;97744.50;6253526;28;20233;-37
2023/01/27 10:50:35;;;;;;;16.73;9.53;;;;;;;1.36;63.84;97746.22;6251120;28;20240;-38
2023/01/27 10:53:47;;;;;;;15.60;10.13;;;;;;;1.23;64.58;97746.88;6252111;28;20268;-38
2023/01/27 10:57:13;;;;;;;13.70;9.10;;;;;;;1.24;64.59;97738.00;6254602;28;20594;-38
2023/01/27 11:00:30;;;;;;;15.10;9.83;;;;;;;1.19;63.93;97740.34;6253239;28;20234;-38
2023/01/27 11:03:59;;;;;;;18.43;10.83;;;;;;;0.93;65.03;97730.25;6252084;28;20246;-39
2023/01/27 11:07:04;;;;;;;17.00;9.90;;;;;;;0.80;64.73;97729.28;6248625;28;20262;-38
2023/01/27 11:10:18;;;;;;;15.27;8.53;;;;;;;0.83;64.98;97734.13;6253188;28;20346;-38
2023/01/27 11:13:21;;;;;;;14.67;9.53;;;;;;;0.87;65.32;97727.56;6250861;28;20237;-38
2023/01/27 11:16:26;;;;;;;16.47;10.27;;;;;;;0.89;64.88;97721.16;6253801;28;20322;-38
2023/01/27 11:19:41;;;;;;;14.33;9.43;;;;;;;0.73;64.49;97703.75;6254354;28;20746;-38
2023/01/27 11:22:48;;;;;;;16.13;9.90;;;;;;;0.83;65.25;97728.91;6249337;28;20240;-38
2023/01/27 11:26:12;;;;;;;14.90;9.07;;;;;;;0.65;65.87;97722.19;6249689;28;20261;-38
2023/01/27 11:29:35;;;;;;;15.10;9.77;;;;;;;0.72;65.70;97724.91;6253521;28;20668;-38
2023/01/27 11:33:02;;;;;;;17.37;9.93;;;;;;;0.43;65.76;97687.16;6247005;28;20218;-38
2023/01/27 11:36:08;;;;;;;15.07;8.97;;;;;;;0.69;65.89;97715.59;6246313;28;20571;-39
2023/01/27 11:39:11;;;;;;;17.17;10.50;;;;;;;0.74;65.90;97728.19;6253431;28;20233;-37
2023/01/27 11:42:14;;;;;;;15.33;9.20;;;;;;;0.68;66.01;97721.81;6247625;28;20608;-38
2023/01/27 11:45:19;;;;;;;16.13;10.07;;;;;;;0.61;65.81;97728.78;6252157;28;20217;-38
2023/01/27 11:48:22;;;;;;;15.40;9.43;;;;;;;0.62;66.03;97721.72;6253050;28;20304;-38
2023/01/27 11:51:39;;;;;;;18.40;10.97;;;;;;;0.64;66.07;97724.97;6253786;28;20232;-38
2023/01/27 11:55:04;;;;;;;17.83;9.57;;;;;;;0.70;66.40;97719.84;6245756;28;20582;-38
2023/01/27 11:58:18;;;;;;;17.00;9.87;;;;;;;0.75;65.86;97714.88;6249015;28;20273;-38
2023/01/27 12:01:28;;;;;;;17.00;10.40;;;;;;;0.74;65.93;97715.88;6254811;28;20757;-38
2023/01/27 12:04:55;;;;;;;17.43;11.23;;;;;;;0.66;65.36;97709.91;6253404;28;20327;-38
2023/01/27 12:08:02;;;;;;;17.07;10.30;;;;;;;0.65;65.39;97708.28;6250304;28;20232;-38
2023/01/27 12:11:17;;;;;;;17.33;10.87;;;;;;;0.59;65.42;97708.97;6250498;28;20248;-38
2023/01/27 12:14:22;;;;;;;20.33;10.67;;;;;;;0.63;65.59;97711.03;6247039;28;20612;-38
2023/01/27 12:17:28;;;;;;;17.87;10.07;;;;;;;0.72;65.26;97704.75;6248661;28;20239;-38
2023/01/27 12:20:48;;;;;;;19.00;11.83;;;;;;;0.78;65.14;97706.63;6252387;28;20235;-38
2023/01/27 12:23:55;;;;;;;18.70;11.53;;;;;;;0.83;64.73;97702.69;6253562;28;20241;-38
2023/01/27 12:26:59;;;;;;;22.47;12.90;;;;;;;0.71;63.97;97684.75;6252326;28;20232;-38
2023/01/27 12:30:05;;;;;;;16.90;9.87;;;;;;;0.93;64.51;97706.66;6252146;28;20259;-38
2023/01/27 12:33:18;;;;;;;15.10;9.47;;;;;;;1.00;64.38;97707.59;6250919;28;20214;-38
2023/01/27 12:36:22;;;;;;;18.63;10.93;;;;;;;0.92;63.88;97705.03;6249599;28;20367;-38
2023/01/27 12:39:49;;;;;;;19.03;10.30;;;;;;;0.98;64.15;97700.88;6248757;28;20650;-38
2023/01/27 12:43:00;;;;;;;19.43;11.37;;;;;;;0.89;63.84;97697.53;6251652;28;20224;-38
2023/01/27 12:46:05;;;;;;;22.17;11.77;;;;;;;0.87;64.93;97709.19;6256536;28;20251;-38
2023/01/27 12:49:13;;;;;;;19.87;11.23;;;;;;;0.81;65.06;97704.69;6250441;28;20230;-38
2023/01/27 12:52:19;;;;;;;20.20;11.80;;;;;;;0.69;66.31;97689.38;6249309;28;20232;-38
2023/01/27 12:55:32;;;;;;;22.60;12.37;;;;;;;0.81;65.76;97700.25;6250938;28;20244;-38
2023/01/27 12:58:38;;;;;;;21.67;12.17;;;;;;;0.74;66.12;97709.81;6248424;28;20212;-38
2023/01/27 13:01:42;;;;;;;18.60;11.80;;;;;;;0.74;65.84;97701.97;6251950;28;20265;-38
2023/01/27 13:05:13;;;;;;;19.03;11.27;;;;;;;0.80;66.17;97700.44;6253060;28;20236;-38
2023/01/27 13:08:17;;;;;;;17.80;11.03;;;;;;;0.76;65.98;97694.72;6258841;28;20238;-38
2023/01/27 13:11:36;;;;;;;20.07;11.50;;;;;;;0.66;65.76;97710.72;6257851;28;20780;-38
2023/01/27 13:14:41;;;;;;;21.00;11.83;;;;;;;0.62;66.54;97703.38;6257279;28;20355;-38
2023/01/27 13:17:47;;;;;;;21.73;12.73;;;;;;;0.61;65.83;97699.94;6257531;28;20238;-38
2023/01/27 13:21:18;;;;;;;16.77;10.73;;;;;;;0.67;65.91;97703.66;6254994;28;20249;-38
2023/01/27 13:24:33;;;;;;;23.83;12.03;;;;;;;0.69;65.33;97707.75;6240247;28;20530;-38
2023/01/27 13:27:39;;;;;;;21.30;12.40;;;;;;;0.66;65.55;97700.22;6253916;28;20726;-38
2023/01/27 13:30:47;;;;;;;17.93;11.33;;;;;;;0.64;64.85;97696.97;6255801;28;20644;-38
2023/01/27 13:34:24;;;;;;;21.00;11.30;;;;;;;0.69;65.01;97702.50;6256449;28;20259;-39
2023/01/27 13:37:50;;;;;;;19.87;11.80;;;;;;;0.53;63.84;97707.88;6223633;28;20743;-39
2023/01/27 13:40:52;;;;;;;18.43;11.53;;;;;;;0.57;64.36;97697.84;6225408;28;20252;-39
2023/01/27 13:44:04;;;;;;;23.23;14.17;;;;;;;0.51;63.41;97700.19;6223344;28;20243;-38
2023/01/27 13:47:42;;;;;;;20.13;12.13;;;;;;;0.60;63.98;97692.25;6226038;28;20233;-38
2023/01/27 13:50:49;;;;;;;22.17;12.63;;;;;;;0.61;63.25;97686.03;6212092;28;20228;-38
2023/01/27 13:53:58;;;;;;;22.90;13.03;;;;;;;0.48;63.48;97668.28;6224608;28;20232;-38
2023/01/27 13:57:11;;;;;;;23.17;12.93;;;;;;;0.61;63.06;97697.31;6220434;28;20246;-38
2023/01/27 14:00:37;;;;;;;24.23;13.47;;;;;;;0.36;64.20;97691.47;6209901;28;20228;-38
2023/01/27 14:03:39;;;;;;;19.67;12.40;;;;;;;0.26;64.96;97704.00;6228562;28;20234;-38
2023/01/27 14:06:56;;;;;;;17.27;11.07;;;;;;;0.28;64.80;97704.63;6223771;28;20244;-38
2023/01/27 14:10:27;;;;;;;21.30;12.07;;;;;;;0.19;65.54;97724.03;6227410;28;20734;-38
2023/01/27 14:13:32;;;;;;;19.93;12.17;;;;;;;0.16;65.90;97719.97;6238049;28;20237;-38
2023/01/27 14:17:25;;;;;;;19.23;11.13;;;;;;;0.20;66.14;97729.09;6251136;28;20231;-39
2023/01/27 14:20:47;;;;;;;19.73;11.47;;;;;;;0.29;66.45;97724.59;6202885;28;20239;-39
2023/01/27 14:24:04;;;;;;;20.47;11.40;;;;;;;0.36;66.19;97727.34;6202696;28;20420;-38
2023/01/27 14:27:34;;;;;;;20.67;12.23;;;;;;;0.39;66.27;97726.97;6199763;28;20236;-38
2023/01/27 14:30:43;;;;;;;25.37;12.60;;;;;;;0.47;65.92;97727.75;6202178;28;20245;-38
2023/01/27 14:33:58;;;;;;;18.80;11.47;;;;;;;0.51;65.74;97730.81;6202323;28;20225;-38
2023/01/27 14:37:12;;;;;;;22.20;12.37;;;;;;;0.46;65.93;97725.31;6206352;28;20240;-39
2023/01/27 14:40:22;;;;;;;25.73;14.07;;;;;;;0.42;66.26;97734.50;6201222;28;20249;-38
2023/01/27 14:43:39;;;;;;;24.80;14.30;;;;;;;0.17;66.37;97718.16;6202115;28;20264;-38
2023/01/27 14:47:04;;;;;;;24.40;14.33;;;;;;;0.21;66.84;97724.69;6202593;28;20389;-38
2023/01/27 14:50:26;;;;;;;25.07;14.47;;;;;;;0.20;67.09;97720.44;6202332;28;20239;-38
2023/01/27 14:53:56;;;;;;;26.30;13.77;;;;;;;0.18;67.23;97725.03;6202177;28;20770;-38
2023/01/27 14:57:25;;;;;;;25.00;14.70;;;;;;;0.12;67.24;97733.59;6248495;28;20223;-38
2023/01/27 15:00:49;;;;;;;23.10;13.10;;;;;;;-0.08;67.41;97705.22;6253553;28;20234;-38
2023/01/27 15:04:14;;;;;;;22.47;13.63;;;;;;;0.19;67.86;97731.88;6254069;28;20854;-38
2023/01/27 15:07:25;;;;;;;24.00;13.27;;;;;;;0.24;67.97;97738.22;6249042;28;20706;-38
2023/01/27 15:10:30;;;;;;;21.33;13.13;;;;;;;0.29;67.85;97739.50;6253386;28;20227;-38
2023/01/27 15:13:55;;;;;;;20.17;12.10;;;;;;;0.36;67.74;97743.06;6253926;28;20239;-38
2023/01/27 15:17:26;;;;;;;26.10;15.07;;;;;;;0.29;67.50;97726.41;6253927;28;20224;-38
2023/01/27 15:20:42;;;;;;;25.23;14.37;;;;;;;0.16;67.58;97730.44;6251814;28;20698;-38
2023/01/27 15:23:53;;;;;;;27.73;16.23;;;;;;;0.14;68.25;97742.06;6240989;28;20256;-38
2023/01/27 15:26:56;;;;;;;27.43;15.50;;;;;;;0.17;68.23;97747.78;6253655;28;20254;-38
2023/01/27 15:30:05;;;;;;;29.23;15.70;;;;;;;0.15;68.49;97756.81;6252986;28;20381;-38
2023/01/27 15:33:45;;;;;;;24.67;14.37;;;;;;;0.15;69.10;97757.63;6249852;28;20220;-38
2023/01/27 15:37:18;;;;;;;27.33;14.23;;;;;;;0.25;69.27;97770.50;6244122;28;20251;-38
2023/01/27 15:40:22;;;;;;;27.57;15.27;;;;;;;0.08;68.78;97777.63;6253183;28;20243;-38
2023/01/27 15:43:28;;;;;;;28.00;15.50;;;;;;;0.00;69.42;97756.75;6249123;28;20242;-39
2023/01/27 15:46:34;;;;;;;26.87;14.87;;;;;;;-0.07;69.22;97756.59;6249539;28;20373;-38
2023/01/27 15:50:20;;;;;;;24.07;13.67;;;;;;;-0.06;69.62;97745.13;6259037;28;20232;-38
2023/01/27 15:53:32;;;;;;;23.63;13.87;;;;;;;-0.01;69.57;97745.44;6220484;28;20229;-38
2023/01/27 15:56:51;;;;;;;23.23;14.30;;;;;;;-0.03;69.88;97750.03;6209082;28;20243;-38
2023/01/27 15:59:57;;;;;;;27.07;15.13;;;;;;;-0.13;70.08;97740.78;6224024;28;20771;-38
2023/01/27 16:03:03;;;;;;;24.53;14.60;;;;;;;-0.15;70.42;97758.44;6224197;28;20231;-38
2023/01/27 16:06:13;;;;;;;23.27;13.60;;;;;;;-0.17;70.18;97769.09;6226897;28;20246;-38
2023/01/27 16:09:32;;;;;;;23.53;13.50;;;;;;;-0.17;69.75;97763.84;6220259;28;20826;-38
2023/01/27 16:12:46;;;;;;;24.03;13.20;;;;;;;-0.16;70.37;97764.66;6224175;28;20234;-38
2023/01/27 16:16:34;;;;;;;20.93;12.27;;;;;;;-0.10;70.40;97764.81;6225295;28;20714;-38
2023/01/27 16:20:07;;;;;;;26.20;14.37;;;;;;;-0.07;70.42;97766.25;6218609;28;20780;-38
2023/01/27 16:23:15;;;;;;;22.60;13.17;;;;;;;-0.12;70.25;97765.97;6211150;28;20777;-38
2023/01/27 16:26:31;;;;;;;22.43;12.30;;;;;;;-0.06;70.28;97779.16;6233420;28;20239;-38
2023/01/27 16:29:39;;;;;;;22.03;12.83;;;;;;;-0.05;69.72;97785.22;6249994;28;20243;-38
2023/01/27 16:32:58;;;;;;;23.43;11.80;;;;;;;-0.05;69.81;97787.84;6250022;28;20878;-38
2023/01/27 16:36:14;;;;;;;19.30;10.87;;;;;;;0.00;70.15;97785.56;6248348;28;20227;-38
2023/01/27 16:39:27;;;;;;;21.83;12.83;;;;;;;0.03;70.08;97787.00;6250183;28;20214;-38
2023/01/27 16:42:36;;;;;;;22.13;13.07;;;;;;;0.01;70.00;97786.38;6256895;28;20239;-38
2023/01/27 16:45:50;;;;;;;22.30;12.37;;;;;;;-0.06;69.55;97775.75;6251824;28;20644;-38
2023/01/27 16:48:53;;;;;;;19.77;12.47;;;;;;;-0.14;69.71;97779.22;6255288;28;20234;-38
2023/01/27 16:51:58;;;;;;;17.40;10.83;;;;;;;-0.07;69.44;97776.72;6249234;28;20329;-38
2023/01/27 16:55:01;;;;;;;19.20;11.37;;;;;;;-0.02;69.76;97775.22;6257833;28;20249;-39
2023/01/27 16:58:11;;;;;;;23.00;12.23;;;;;;;0.04;69.54;97784.19;6258580;28;20235;-38
2023/01/27 17:01:35;;;;;;;24.13;12.83;;;;;;;0.10;68.95;97791.38;6252712;28;20235;-38
2023/01/27 17:04:37;;;;;;;22.80;12.87;;;;;;;-0.04;69.23;97779.84;6257512;28;20793;-38
2023/01/27 17:07:40;;;;;;;22.33;12.63;;;;;;;-0.02;69.05;97790.94;6254209;28;20255;-38
2023/01/27 17:10:53;;;;;;;23.53;12.77;;;;;;;-0.09;69.10;97795.25;6249164;28;20586;-38
2023/01/27 17:14:01;;;;;;;18.07;11.90;;;;;;;-0.03;69.24;97806.84;6255092;28;20236;-38
2023/01/27 17:17:14;;;;;;;23.33;12.57;;;;;;;0.02;69.49;97811.56;6256715;28;20215;-39
2023/01/27 17:20:27;;;;;;;19.90;11.83;;;;;;;0.06;69.23;97818.91;6255937;28;20231;-39
2023/01/27 17:23:36;;;;;;;20.67;12.30;;;;;;;0.04;68.94;97817.44;6253068;28;20224;-38
2023/01/27 17:26:42;;;;;;;19.37;11.63;;;;;;;0.02;69.35;97824.66;6249151;28;20650;-38
2023/01/27 17:29:51;;;;;;;23.20;13.57;;;;;;;-0.01;69.20;97824.00;6256724;28;20223;-38
2023/01/27 17:32:59;;;;;;;20.83;12.77;;;;;;;-0.14;69.72;97841.25;6255813;28;20223;-39
2023/01/27 17:36:09;;;;;;;21.87;13.37;;;;;;;-0.16;69.91;97846.66;6246345;28;20224;-38
2023/01/27 17:39:24;;;;;;;20.20;11.93;;;;;;;-0.17;69.95;97857.28;6265902;28;20234;-38
2023/01/27 17:42:32;;;;;;;19.67;12.07;;;;;;;-0.17;69.86;97859.91;6248965;28;20735;-38
2023/01/27 17:45:36;;;;;;;21.88;15.55;;;;;;;-0.33;69.59;97822.34;6251767;28;20442;-38
2023/01/27 17:48:53;;;;;;;22.47;13.67;;;;;;;-0.42;70.15;97852.13;6251691;28;20235;-38
2023/01/27 17:52:01;;;;;;;22.23;13.53;;;;;;;-0.62;70.43;97848.25;6251133;28;20318;-38
2023/01/27 17:55:04;;;;;;;22.97;13.77;;;;;;;-0.79;70.45;97845.69;6242746;28;20594;-38
2023/01/27 17:58:23;;;;;;;20.60;12.37;;;;;;;-0.78;70.11;97854.34;6254392;28;20234;-38
2023/01/27 18:01:26;;;;;;;17.93;11.10;;;;;;;-0.74;69.93;97857.41;6255021;28;20266;-38
2023/01/27 18:04:32;;;;;;;22.37;12.73;;;;;;;-0.72;70.01;97863.31;6254070;28;20231;-38
2023/01/27 18:07:35;;;;;;;21.30;11.77;;;;;;;-0.65;70.12;97865.09;6250340;28;20235;-38
2023/01/27 18:10:44;;;;;;;19.23;11.90;;;;;;;-0.63;69.86;97862.34;6255299;28;20239;-38
2023/01/27 18:13:51;;;;;;;22.13;12.43;;;;;;;-0.65;70.00;97865.09;6255051;28;20231;-38
2023/01/27 18:17:21;;;;;;;19.23;12.20;;;;;;;-0.76;70.23;97852.38;6248224;28;20230;-38
2023/01/27 18:20:30;;;;;;;25.67;13.73;;;;;;;-0.83;70.63;97867.91;6249346;28;20254;-38
2023/01/27 18:23:36;;;;;;;20.50;12.30;;;;;;;-0.83;70.37;97872.34;6255283;28;20219;-38
2023/01/27 18:26:42;;;;;;;24.23;13.97;;;;;;;-0.84;70.10;97870.66;6254307;28;20238;-38
2023/01/27 18:29:46;;;;;;;20.67;11.67;;;;;;;-0.90;70.06;97872.16;6255527;28;20261;-38
2023/01/27 18:32:52;;;;;;;19.13;12.47;;;;;;;-1.05;70.13;97850.25;6254378;28;20661;-38
2023/01/27 18:35:57;;;;;;;20.50;12.27;;;;;;;-0.82;69.76;97889.66;6249515;28;20246;-38
2023/01/27 18:39:38;;;;;;;20.37;12.57;;;;;;;-0.82;70.03;97884.41;6255770;28;20262;-38
2023/01/27 18:42:41;;;;;;;18.83;11.40;;;;;;;-0.76;69.97;97891.59;6249023;28;20281;-38
2023/01/27 18:45:46;;;;;;;17.67;11.00;;;;;;;-0.76;69.87;97893.41;6249237;28;20322;-38
2023/01/27 18:48:48;;;;;;;23.23;13.00;;;;;;;-0.83;69.68;97901.09;6253856;28;20231;-38
2023/01/27 18:51:51;;;;;;;22.80;13.30;;;;;;;-0.93;69.66;97908.28;6250221;28;20235;-39
2023/01/27 18:55:00;;;;;;;21.57;13.43;;;;;;;-0.94;69.62;97915.28;6254113;28;20242;-38
2023/01/27 18:58:04;;;;;;;20.70;12.50;;;;;;;-0.88;69.75;97914.66;6251732;28;20273;-38
2023/01/27 19:01:18;;;;;;;21.60;12.90;;;;;;;-0.87;69.44;97926.75;6251097;28;20227;-38
2023/01/27 19:04:21;;;;;;;21.33;11.23;;;;;;;-0.81;69.32;97920.88;6253601;28;20223;-39
2023/01/27 19:07:26;;;;;;;20.20;12.17;;;;;;;-0.83;69.52;97915.00;6253181;28;20222;-39
2023/01/27 19:10:32;;;;;;;22.30;12.77;;;;;;;-0.88;69.38;97917.28;6252058;28;20234;-39
2023/01/27 19:13:35;;;;;;;19.30;11.80;;;;;;;-0.89;69.43;97914.81;6252407;28;20434;-38
2023/01/27 19:16:38;;;;;;;21.97;12.27;;;;;;;-0.99;69.61;97914.97;6253342;28;20235;-38
2023/01/27 19:19:41;;;;;;;19.73;12.37;;;;;;;-1.27;69.61;97871.84;6253471;28;20238;-38
2023/01/27 19:22:45;;;;;;;18.70;11.07;;;;;;;-0.97;69.55;97902.56;6250150;28;20239;-38
2023/01/27 19:26:02;;;;;;;21.20;12.70;;;;;;;-0.95;69.76;97908.44;6250459;28;20261;-38
2023/01/27 19:29:04;;;;;;;23.97;12.50;;;;;;;-1.10;69.93;97881.31;6253751;28;20319;-38
2023/01/27 19:32:11;;;;;;;22.50;13.20;;;;;;;-1.01;70.06;97909.09;6253325;28;20594;-39
2023/01/27 19:35:20;;;;;;;20.47;12.40;;;;;;;-1.36;70.20;97868.38;6250572;28;20314;-38
2023/01/27 19:38:25;;;;;;;21.90;12.77;;;;;;;-1.19;70.03;97895.34;6250111;28;20353;-39
2023/01/27 19:41:28;;;;;;;21.17;12.87;;;;;;;-1.01;70.00;97911.72;6251305;28;20235;-38
2023/01/27 19:44:31;;;;;;;20.13;12.47;;;;;;;-0.98;70.00;97908.78;6248717;28;20246;-38
2023/01/27 19:47:34;;;;;;;21.00;12.10;;;;;;;-0.89;69.91;97917.41;6253661;28;20231;-38
2023/01/27 19:50:38;;;;;;;22.77;12.47;;;;;;;-0.89;70.05;97922.66;6253019;28;20232;-38
2023/01/27 19:53:42;;;;;;;23.40;13.50;;;;;;;-0.92;70.00;97923.81;6244682;28;20238;-38
2023/01/27 19:56:49;;;;;;;22.87;12.93;;;;;;;-0.98;70.21;97926.28;6251199;28;20792;-38
2023/01/27 19:59:59;;;;;;;23.58;14.57;;;;;;;-0.86;70.45;97933.59;6245719;28;20452;-38
2023/01/27 20:03:12;;;;;;;23.40;14.03;;;;;;;-0.87;70.27;97931.97;6252445;28;20587;-38
2023/01/27 20:06:25;;;;;;;23.10;12.50;;;;;;;-0.82;70.16;97934.94;6251595;28;20660;-38
2023/01/27 20:09:28;;;;;;;22.37;12.93;;;;;;;-0.91;70.02;97937.69;6252892;28;20849;-38
2023/01/27 20:12:33;;;;;;;24.90;13.30;;;;;;;-1.01;70.20;97937.84;6234967;28;20227;-38
2023/01/27 20:15:38;;;;;;;20.77;12.87;;;;;;;-1.18;70.64;97915.28;6247948;28;20326;-38
2023/01/27 20:18:42;;;;;;;24.47;14.33;;;;;;;-1.06;70.59;97940.94;6249654;28;20328;-38
2023/01/27 20:21:47;;;;;;;26.70;15.37;;;;;;;-1.21;70.90;97933.91;6251556;28;20322;-38
2023/01/27 20:24:50;;;;;;;25.97;14.60;;;;;;;-1.33;71.63;97936.84;6252575;28;20265;-38
2023/01/27 20:27:57;;;;;;;22.70;13.77;;;;;;;-1.53;71.71;97891.03;6248841;28;20619;-38
2023/01/27 20:31:02;;;;;;;22.97;14.07;;;;;;;-1.31;71.59;97940.09;6244404;28;20272;-38
2023/01/27 20:34:05;;;;;;;25.30;14.47;;;;;;;-1.33;72.20;97942.06;6248230;28;20281;-38
2023/01/27 20:37:12;;;;;;;21.27;12.93;;;;;;;-1.30;72.33;97946.94;6241848;28;20591;-38
2023/01/27 20:40:18;;;;;;;20.87;11.77;;;;;;;-1.24;72.37;97947.28;6249566;28;20714;-38
2023/01/27 20:43:21;;;;;;;20.23;12.07;;;;;;;-1.22;72.44;97947.97;6243551;28;20239;-38
2023/01/27 20:46:37;;;;;;;25.77;14.20;;;;;;;-1.26;72.51;97949.25;6249231;28;20641;-38
2023/01/27 20:49:42;;;;;;;19.53;13.00;;;;;;;-1.36;72.48;97950.22;6250287;28;20238;-38
2023/01/27 20:52:48;;;;;;;24.03;13.27;;;;;;;-1.33;72.35;97954.28;6249411;28;20245;-38
2023/01/27 20:55:54;;;;;;;21.90;13.67;;;;;;;-1.30;72.15;97949.56;6251900;28;20234;-38
2023/01/27 20:58:57;;;;;;;27.90;13.87;;;;;;;-1.34;72.06;97950.03;6247776;28;20237;-38
2023/01/27 21:01:59;;;;;;;20.80;11.90;;;;;;;-1.28;72.08;97952.03;6253218;28;20230;-38
2023/01/27 21:05:07;;;;;;;22.13;12.77;;;;;;;-1.19;71.77;97950.25;6253549;28;20607;-38
2023/01/27 21:08:16;;;;;;;21.20;12.67;;;;;;;-1.13;71.82;97955.66;6246186;28;20224;-38
2023/01/27 21:11:21;;;;;;;25.30;13.70;;;;;;;-1.15;71.60;97951.56;6248671;28;20273;-38
2023/01/27 21:14:24;;;;;;;21.07;12.20;;;;;;;-1.16;71.29;97950.75;6251648;28;20238;-38
2023/01/27 21:17:27;;;;;;;21.73;12.60;;;;;;;-1.09;71.13;97953.53;6251370;28;20816;-38
2023/01/27 21:20:30;;;;;;;22.07;12.90;;;;;;;-1.16;70.90;97960.38;6252155;28;20316;-38
2023/01/27 21:23:33;;;;;;;19.80;12.37;;;;;;;-1.21;70.73;97950.41;6251905;28;20227;-38
2023/01/27 21:26:37;;;;;;;22.50;13.00;;;;;;;-1.23;70.86;97959.38;6247571;28;20487;-38
2023/01/27 21:29:41;;;;;;;23.77;12.97;;;;;;;-1.20;71.02;97967.72;6253043;28;20227;-38
2023/01/27 21:32:44;;;;;;;20.70;12.10;;;;;;;-1.13;71.17;97965.31;6256271;28;20235;-38
2023/01/27 21:35:54;;;;;;;22.27;12.60;;;;;;;-1.24;70.92;97952.50;6255403;28;20226;-38
2023/01/27 21:38:56;;;;;;;18.60;11.97;;;;;;;-1.11;70.89;97968.56;6256091;28;20223;-38
2023/01/27 21:45:11;;;;;;;19.57;11.60;;;;;;;-1.11;71.09;97965.94;6251700;28;20227;-38
2023/01/27 21:48:15;;;;;;;20.23;12.07;;;;;;;-1.10;71.13;97972.81;6255354;28;20211;-38
2023/01/27 21:51:19;;;;;;;19.37;11.30;;;;;;;-0.98;70.82;97973.34;6255177;28;20257;-38
2023/01/27 21:54:21;;;;;;;24.43;13.23;;;;;;;-0.93;70.69;97978.91;6254431;28;22964;-38
2023/01/27 21:57:23;;;;;;;24.00;12.40;;;;;;;-0.93;70.56;97971.88;6255330;28;20608;-38
2023/01/27 22:00:27;;;;;;;19.77;12.13;;;;;;;-0.87;70.71;97981.66;6253381;28;20223;-38
2023/01/27 22:03:30;;;;;;;23.67;13.40;;;;;;;-0.98;70.60;97979.38;6257123;28;20242;-38
2023/01/27 22:06:32;;;;;;;18.87;11.50;;;;;;;-0.89;70.47;97967.91;6256937;28;20243;-38
2023/01/27 22:09:36;;;;;;;21.23;12.50;;;;;;;-0.88;70.07;97980.03;6255339;28;20737;-38
2023/01/27 22:12:38;;;;;;;21.33;11.13;;;;;;;-0.93;70.18;97982.31;6255560;28;20341;-38
2023/01/27 22:15:40;;;;;;;39.33;20.57;;;;;;;-0.92;70.03;97985.75;6255510;28;20320;-38
2023/01/27 22:18:42;;;;;;;24.73;13.07;;;;;;;-0.90;70.13;97983.78;6248757;28;20242;-38
2023/01/27 22:21:45;;;;;;;20.27;12.00;;;;;;;-0.89;70.12;97981.00;6254684;28;20235;-38
2023/01/27 22:24:47;;;;;;;19.40;11.30;;;;;;;-0.80;70.27;97979.22;6251071;28;20235;-38
2023/01/27 22:27:53;;;;;;;21.17;12.07;;;;;;;-0.80;69.89;97982.66;6254728;28;20292;-38
2023/01/27 22:31:00;;;;;;;21.37;12.57;;;;;;;-0.82;69.71;97983.81;6252254;28;20235;-38
2023/01/27 22:34:02;;;;;;;26.27;14.43;;;;;;;-0.81;69.52;97990.66;6253277;28;20361;-38
2023/01/27 22:37:04;;;;;;;24.27;13.03;;;;;;;-0.82;69.86;97994.25;6249728;28;20245;-38
2023/01/27 22:40:09;;;;;;;22.20;13.03;;;;;;;-0.87;69.75;97993.94;6250795;28;20235;-38
2023/01/27 22:43:16;;;;;;;23.50;13.57;;;;;;;-0.88;70.40;97995.72;6252353;28;20243;-38
2023/01/27 22:46:18;;;;;;;21.00;13.13;;;;;;;-0.87;70.13;97999.97;6254535;28;20238;-38
2023/01/27 22:49:20;;;;;;;22.33;13.27;;;;;;;-1.06;69.89;97959.25;6254640;28;20231;-38
2023/01/27 22:52:22;;;;;;;22.20;12.83;;;;;;;-0.95;69.93;97992.09;6248854;28;20239;-38
2023/01/27 22:55:24;;;;;;;20.17;12.57;;;;;;;-0.89;70.11;97991.47;6254125;28;20234;-38
2023/01/27 22:58:27;;;;;;;23.03;12.87;;;;;;;-0.83;70.01;97988.22;6254613;28;20811;-38
2023/01/27 23:01:29;;;;;;;21.83;12.87;;;;;;;-0.84;69.71;97985.75;6255938;28;20234;-38
2023/01/27 23:04:32;;;;;;;22.20;13.40;;;;;;;-0.74;69.72;97990.81;6253881;28;20238;-38
2023/01/27 23:07:34;;;;;;;24.30;13.33;;;;;;;-0.78;69.55;97995.59;6245706;28;20223;-38